Terminal Aerodrome Forecast
Issued by NWS

Home | Current Version | Previous Version | Text Only | Print | Product List | Glossary On
Versions: 1 2 3 4 5 6 7 8 9 10 11 12 13 14 15 16 17 18 19 20 21 22 23 24 25 26 27 28
728
FTUS41 KOKX 221334 AAA
TAFHPN
TAF AMD
KHPN 221334Z 2214/2312 35014G20KT P6SM SCT040 BKN150
     FM230000 34010KT P6SM SCT040 BKN150
     FM231000 34010KT P6SM SCT250
      AMD NOT SKED=

USA.gov is the U.S. government's official web portal to all federal, state and local government web resources and services.